createdAt,value
2023-04-27T00:01:55.443Z,11.16
2023-04-27T00:03:58.396Z,11.15
2023-04-27T00:06:02.587Z,11.14
2023-04-27T00:08:05.575Z,11.14
2023-04-27T00:10:09.570Z,11.13
2023-04-27T00:12:12.165Z,11.12
2023-04-27T00:14:14.717Z,11.12
2023-04-27T00:16:17.366Z,11.15
2023-04-27T00:18:20.062Z,11.10
2023-04-27T00:20:22.598Z,11.04
2023-04-27T00:22:26.498Z,11.09
2023-04-27T00:24:29.050Z,10.94
2023-04-27T00:26:31.683Z,10.83
2023-04-27T00:28:34.266Z,10.77
2023-04-27T00:30:39.542Z,10.75
2023-04-27T00:32:42.549Z,10.74
2023-04-27T00:34:45.270Z,10.72
2023-04-27T00:36:50.137Z,10.74
2023-04-27T00:38:54.114Z,10.74
2023-04-27T00:41:02.388Z,10.76
2023-04-27T00:43:05.193Z,10.76
2023-04-27T00:45:08.908Z,10.75
2023-04-27T00:47:11.969Z,10.75
2023-04-27T00:49:14.798Z,10.75
2023-04-27T00:51:17.820Z,10.76
2023-04-27T00:53:20.787Z,10.77
2023-04-27T00:55:24.818Z,10.80
2023-04-27T00:57:27.382Z,10.70
2023-04-27T00:59:30.203Z,10.65
2023-04-27T01:01:33.297Z,10.63
2023-04-27T01:03:36.267Z,10.54
2023-04-27T01:05:39.968Z,10.58
2023-04-27T01:07:42.633Z,10.48
2023-04-27T01:09:45.222Z,10.41
2023-04-27T01:11:49.090Z,10.35
2023-04-27T01:13:52.361Z,10.27
2023-04-27T01:15:54.982Z,10.25
2023-04-27T01:18:01.387Z,10.20
2023-04-27T01:20:07.516Z,10.20
2023-04-27T01:22:10.326Z,10.16
2023-04-27T01:24:14.265Z,10.12
2023-04-27T01:26:16.930Z,10.16
2023-04-27T01:28:19.482Z,10.17
2023-04-27T01:30:22.558Z,10.30
2023-04-27T01:32:25.173Z,10.22
2023-04-27T01:34:27.906Z,10.10
2023-04-27T01:36:31.822Z,10.05
2023-04-27T01:38:35.058Z,10.01
2023-04-27T01:40:39.216Z,10.09
2023-04-27T01:42:42.097Z,9.98
2023-04-27T01:44:44.808Z,9.85
2023-04-27T01:46:47.502Z,9.77
2023-04-27T01:48:50.073Z,9.77
2023-04-27T01:50:52.818Z,9.75
2023-04-27T01:52:55.695Z,9.73
2023-04-27T01:54:58.393Z,9.69
2023-04-27T01:57:02.661Z,9.61
2023-04-27T01:59:05.248Z,9.61
2023-04-27T02:01:07.799Z,9.64
2023-04-27T02:03:10.461Z,9.65
2023-04-27T02:05:13.141Z,9.67
2023-04-27T02:07:15.893Z,9.70
2023-04-27T02:09:18.552Z,9.73
2023-04-27T02:11:21.617Z,9.77
2023-04-27T02:13:25.588Z,9.82
2023-04-27T02:15:28.205Z,9.87
2023-04-27T02:17:31.301Z,9.88
2023-04-27T02:19:33.908Z,9.91
2023-04-27T02:21:37.041Z,9.93
2023-04-27T02:23:39.631Z,9.91
2023-04-27T02:25:46.392Z,9.90
2023-04-27T02:27:49.137Z,9.90
2023-04-27T02:29:53.753Z,9.89
2023-04-27T02:31:56.877Z,9.87
2023-04-27T02:33:59.480Z,9.88
2023-04-27T02:36:02.080Z,9.85
2023-04-27T02:38:04.645Z,9.84
2023-04-27T02:40:09.457Z,9.83
2023-04-27T02:42:12.035Z,9.82
2023-04-27T02:44:14.695Z,9.89
2023-04-27T02:46:18.627Z,9.91
2023-04-27T02:48:21.298Z,9.83
2023-04-27T02:50:23.853Z,9.79
2023-04-27T02:52:26.411Z,9.68
2023-04-27T02:54:28.957Z,9.62
2023-04-27T02:56:31.559Z,9.55
2023-04-27T02:58:34.855Z,9.56
2023-04-27T03:00:37.400Z,9.54
2023-04-27T03:02:41.500Z,9.56
2023-04-27T03:04:44.572Z,9.58
2023-04-27T03:06:47.235Z,9.61
2023-04-27T03:08:49.914Z,9.63
2023-04-27T03:10:52.463Z,9.65
2023-04-27T03:12:55.011Z,9.68
2023-04-27T03:14:57.552Z,9.69
2023-04-27T03:17:00.131Z,9.69
2023-04-27T03:19:04.080Z,9.68
2023-04-27T03:21:10.668Z,9.71
2023-04-27T03:23:13.263Z,9.73
2023-04-27T03:25:15.905Z,9.71
2023-04-27T03:27:18.536Z,9.61
2023-04-27T03:29:21.161Z,9.56
2023-04-27T03:31:23.771Z,9.52
2023-04-27T03:33:27.061Z,9.44
2023-04-27T03:35:30.953Z,9.44
2023-04-27T03:37:34.260Z,9.42
2023-04-27T03:39:36.809Z,9.42
2023-04-27T03:41:39.383Z,9.43
2023-04-27T03:43:41.926Z,9.45
2023-04-27T03:45:44.504Z,9.49
2023-04-27T03:47:47.113Z,9.49
2023-04-27T03:49:49.779Z,9.49
2023-04-27T03:51:53.678Z,9.49
2023-04-27T03:53:56.405Z,9.49
2023-04-27T03:55:58.971Z,9.53
2023-04-27T03:58:01.512Z,9.52
2023-04-27T04:00:07.246Z,9.53
2023-04-27T04:02:10.203Z,9.56
2023-04-27T04:04:13.041Z,9.56
2023-04-27T04:06:15.762Z,9.59
2023-04-27T04:08:19.772Z,9.68
2023-04-27T04:10:22.338Z,9.60
2023-04-27T04:12:24.919Z,9.57
2023-04-27T04:14:28.721Z,9.54
2023-04-27T04:16:31.321Z,9.53
2023-04-27T04:18:34.049Z,9.51
2023-04-27T04:20:36.928Z,9.52
2023-04-27T04:22:39.811Z,9.53
2023-04-27T04:24:43.752Z,9.53
2023-04-27T04:26:47.173Z,9.55
2023-04-27T04:28:49.765Z,9.56
2023-04-27T04:30:52.541Z,9.56
2023-04-27T04:32:55.251Z,9.57
2023-04-27T04:34:57.961Z,9.60
2023-04-27T04:37:00.564Z,9.62
2023-04-27T04:39:03.491Z,9.65
2023-04-27T04:41:08.100Z,9.68
2023-04-27T04:43:11.079Z,9.68
2023-04-27T04:45:14.059Z,9.66
2023-04-27T04:47:17.724Z,9.68
2023-04-27T04:49:20.374Z,9.70
2023-04-27T04:51:22.993Z,9.70
2023-04-27T04:53:26.180Z,9.71
2023-04-27T04:55:29.113Z,9.71
2023-04-27T04:57:33.036Z,9.70
2023-04-27T04:59:35.986Z,9.70
2023-04-27T05:01:38.628Z,9.68
2023-04-27T05:03:41.400Z,9.68
2023-04-27T05:05:44.078Z,9.69
2023-04-27T05:07:46.736Z,9.75
2023-04-27T05:09:49.372Z,9.76
2023-04-27T05:11:51.960Z,9.78
2023-04-27T05:13:55.937Z,9.81
2023-04-27T05:15:58.569Z,9.83
2023-04-27T05:18:01.202Z,9.87
2023-04-27T05:20:04.882Z,9.89
2023-04-27T05:22:07.472Z,9.89
2023-04-27T05:24:10.034Z,9.90
2023-04-27T05:26:13.541Z,9.89
2023-04-27T05:28:16.267Z,9.90
2023-04-27T05:30:20.199Z,9.91
2023-04-27T05:32:22.760Z,9.93
2023-04-27T05:34:25.543Z,9.96
2023-04-27T05:36:28.533Z,9.98
2023-04-27T05:38:31.564Z,9.98
2023-04-27T05:40:34.127Z,10.03
2023-04-27T05:42:37.057Z,10.04
2023-04-27T05:44:39.615Z,10.05
2023-04-27T05:46:43.541Z,10.05
2023-04-27T05:48:46.148Z,10.09
2023-04-27T05:50:48.692Z,10.05
2023-04-27T05:52:51.236Z,10.05
2023-04-27T05:54:53.778Z,10.04
2023-04-27T05:56:56.437Z,10.03
2023-04-27T05:59:01.149Z,10.03
2023-04-27T06:01:05.256Z,10.02
2023-04-27T06:03:09.217Z,10.02
2023-04-27T06:05:12.065Z,9.99
2023-04-27T06:07:16.439Z,10.00
2023-04-27T06:09:19.082Z,9.99
2023-04-27T06:11:22.075Z,10.01
2023-04-27T06:13:24.629Z,10.06
2023-04-27T06:15:27.197Z,10.08
2023-04-27T06:17:29.757Z,10.09
2023-04-27T06:19:33.816Z,10.13
2023-04-27T06:21:36.654Z,10.18
2023-04-27T06:23:41.633Z,10.20
2023-04-27T06:25:44.233Z,10.23
2023-04-27T06:27:47.430Z,10.24
2023-04-27T06:29:50.020Z,10.28
2023-04-27T06:31:52.648Z,10.29
2023-04-27T06:33:55.287Z,10.32
2023-04-27T06:35:59.349Z,10.33
2023-04-27T06:38:01.920Z,10.36
2023-04-27T06:40:05.071Z,10.39
2023-04-27T06:42:07.655Z,10.42
2023-04-27T06:44:10.211Z,10.46
2023-04-27T06:46:15.558Z,10.49
2023-04-27T06:48:18.337Z,10.51
2023-04-27T06:50:21.191Z,10.55
2023-04-27T06:52:25.108Z,10.62
2023-04-27T06:54:27.866Z,10.64
2023-04-27T06:56:30.511Z,10.67
2023-04-27T06:58:33.095Z,10.68
2023-04-27T07:00:35.779Z,10.71
2023-04-27T07:02:38.453Z,10.75
2023-04-27T07:04:41.570Z,10.79
2023-04-27T07:06:44.133Z,10.82
2023-04-27T07:08:48.065Z,10.85
2023-04-27T07:10:51.068Z,10.88
2023-04-27T07:12:53.618Z,10.90
2023-04-27T07:14:56.337Z,10.98
2023-04-27T07:16:58.948Z,10.98
2023-04-27T07:19:01.591Z,10.97
2023-04-27T07:21:04.333Z,11.04
2023-04-27T07:23:07.162Z,11.13
2023-04-27T07:25:11.474Z,11.07
2023-04-27T07:27:14.988Z,11.09
2023-04-27T07:29:26.310Z,11.09
2023-04-27T07:31:29.921Z,11.14
2023-04-27T07:33:32.888Z,11.16
2023-04-27T07:35:35.530Z,11.18
2023-04-27T07:37:38.392Z,11.27
2023-04-27T07:39:41.008Z,11.45
2023-04-27T07:41:44.923Z,11.36
2023-04-27T07:43:48.300Z,11.33
2023-04-27T07:45:50.913Z,11.30
2023-04-27T07:47:53.583Z,11.29
2023-04-27T07:49:56.379Z,11.31
2023-04-27T07:51:59.090Z,11.34
2023-04-27T07:54:02.169Z,11.35
2023-04-27T07:56:06.949Z,11.37
2023-04-27T07:58:11.225Z,11.40
2023-04-27T08:00:14.481Z,11.43
2023-04-27T08:02:20.088Z,11.45
2023-04-27T08:04:23.494Z,11.48
2023-04-27T08:06:28.768Z,11.51
2023-04-27T08:08:32.131Z,11.52
2023-04-27T08:10:34.741Z,11.57
2023-04-27T08:12:37.398Z,11.57
2023-04-27T08:14:41.364Z,11.58
2023-04-27T08:16:44.895Z,11.59
2023-04-27T08:18:47.472Z,11.61
2023-04-27T08:20:50.065Z,11.63
2023-04-27T08:22:52.824Z,11.66
2023-04-27T08:24:55.539Z,11.64
2023-04-27T08:26:58.112Z,11.75
2023-04-27T08:29:04.760Z,11.73
2023-04-27T08:31:12.943Z,11.76
2023-04-27T08:33:15.750Z,11.79
2023-04-27T08:35:18.601Z,11.85
2023-04-27T08:37:21.821Z,11.89
2023-04-27T08:39:25.494Z,11.93
2023-04-27T08:41:28.078Z,11.96
2023-04-27T08:43:35.257Z,12.03
2023-04-27T08:45:38.035Z,12.05
2023-04-27T08:47:43.896Z,12.14
2023-04-27T08:49:46.863Z,12.24
2023-04-27T08:51:49.428Z,12.33
2023-04-27T08:53:53.850Z,12.24
2023-04-27T08:55:59.586Z,12.34
2023-04-27T08:58:03.188Z,12.32
2023-04-27T09:00:12.549Z,12.32
2023-04-27T09:02:21.750Z,12.33
2023-04-27T09:04:25.897Z,12.36
2023-04-27T09:06:32.633Z,12.37
2023-04-27T09:08:46.331Z,12.37
2023-04-27T09:10:51.008Z,12.41
2023-04-27T09:13:01.045Z,12.49
2023-04-27T09:15:06.188Z,12.52
2023-04-27T09:17:08.808Z,12.54
2023-04-27T09:19:11.916Z,12.53
2023-04-27T09:21:23.458Z,12.58
2023-04-27T09:23:30.388Z,12.63
2023-04-27T09:25:34.117Z,12.78
2023-04-27T09:27:39.086Z,12.74
2023-04-27T09:29:41.626Z,12.91
2023-04-27T09:31:44.264Z,12.89
2023-04-27T09:33:47.537Z,12.81
2023-04-27T09:35:50.710Z,12.80
2023-04-27T09:37:55.589Z,12.84
2023-04-27T09:39:58.645Z,12.97
2023-04-27T09:42:01.835Z,13.07
2023-04-27T09:44:05.073Z,12.99
2023-04-27T09:46:08.097Z,13.07
2023-04-27T09:48:11.430Z,12.95
2023-04-27T09:50:15.017Z,13.02
2023-04-27T09:52:17.567Z,13.36
2023-04-27T09:54:26.013Z,13.45
2023-04-27T09:56:39.895Z,13.23
2023-04-27T09:58:55.104Z,13.16
2023-04-27T10:01:05.839Z,13.19
2023-04-27T10:03:25.440Z,13.26
2023-04-27T10:05:43.444Z,13.33
2023-04-27T10:07:46.695Z,13.55
2023-04-27T10:09:51.777Z,13.54
2023-04-27T10:11:56.157Z,13.43
2023-04-27T10:13:58.733Z,13.52
2023-04-27T10:16:17.015Z,13.50
2023-04-27T10:18:31.601Z,13.61
2023-04-27T10:20:38.864Z,13.51
2023-04-27T10:22:42.907Z,13.43
2023-04-27T10:24:51.696Z,13.39
2023-04-27T10:26:54.277Z,13.37
2023-04-27T10:28:58.492Z,13.38
2023-04-27T10:31:11.162Z,13.41
2023-04-27T10:33:18.035Z,13.53
2023-04-27T10:35:22.162Z,13.74
2023-04-27T10:37:27.533Z,13.68
2023-04-27T10:39:47.046Z,13.63
2023-04-27T10:41:53.863Z,13.92
2023-04-27T10:43:56.422Z,13.80
2023-04-27T10:46:08.811Z,14.18
2023-04-27T10:48:14.330Z,14.14
2023-04-27T10:50:18.480Z,13.98
2023-04-27T10:52:21.186Z,13.86
2023-04-27T10:54:28.106Z,13.83
2023-04-27T10:56:30.715Z,13.82
2023-04-27T11:00:44.995Z,14.17
2023-04-27T11:02:47.754Z,14.16
2023-04-27T11:04:50.552Z,14.14
2023-04-27T11:06:54.721Z,14.16
2023-04-27T11:08:57.649Z,14.34
2023-04-27T11:11:00.282Z,14.63
2023-04-27T11:13:11.255Z,14.58
2023-04-27T11:15:15.417Z,14.45
2023-04-27T11:17:17.989Z,14.38
2023-04-27T11:19:20.580Z,14.69
2023-04-27T11:21:23.821Z,14.74
2023-04-27T11:23:28.808Z,14.84
2023-04-27T11:25:31.541Z,14.83
2023-04-27T11:27:38.623Z,14.75
2023-04-27T11:29:41.669Z,14.76
2023-04-27T11:31:49.186Z,14.72
2023-04-27T11:33:52.314Z,14.66
2023-04-27T11:35:56.375Z,14.72
2023-04-27T11:37:59.512Z,15.04
2023-04-27T11:40:02.515Z,15.05
2023-04-27T11:42:19.454Z,15.01
2023-04-27T11:44:27.895Z,14.97
2023-04-27T11:46:30.820Z,14.88
2023-04-27T11:48:37.531Z,14.89
2023-04-27T11:50:40.506Z,14.89
2023-04-27T11:52:43.058Z,15.02
2023-04-27T11:54:50.762Z,15.27
2023-04-27T11:56:53.350Z,15.39
2023-04-27T11:58:55.911Z,15.46
2023-04-27T12:00:58.674Z,15.66
2023-04-27T12:03:01.446Z,15.40
2023-04-27T12:05:07.599Z,15.37
2023-04-27T12:07:12.190Z,15.35
2023-04-27T12:09:14.780Z,15.53
2023-04-27T12:11:17.351Z,15.57
2023-04-27T12:13:19.916Z,15.55
2023-04-27T12:15:22.598Z,15.47
2023-04-27T12:17:25.165Z,15.59
2023-04-27T12:19:27.968Z,15.77
2023-04-27T12:21:32.158Z,15.62
2023-04-27T12:23:34.802Z,15.86
2023-04-27T12:25:37.575Z,15.99
2023-04-27T12:27:40.187Z,15.71
2023-04-27T12:29:42.869Z,15.66
2023-04-27T12:31:45.642Z,15.56
2023-04-27T12:33:49.206Z,15.57
2023-04-27T12:35:52.033Z,15.50
2023-04-27T12:37:55.918Z,15.52
2023-04-27T12:39:58.632Z,15.54
2023-04-27T12:42:03.727Z,15.56
2023-04-27T12:44:06.573Z,15.57
2023-04-27T12:46:09.239Z,15.62
2023-04-27T12:48:11.856Z,15.68
2023-04-27T12:50:15.705Z,15.72
2023-04-27T12:52:18.718Z,15.85
2023-04-27T12:54:22.604Z,16.23
2023-04-27T12:56:25.217Z,16.20
2023-04-27T12:58:27.808Z,16.47
2023-04-27T13:00:30.480Z,16.54
2023-04-27T13:02:34.069Z,16.44
2023-04-27T13:04:37.220Z,16.67
2023-04-27T13:06:39.976Z,16.75
2023-04-27T13:08:45.513Z,16.89
2023-04-27T13:10:49.415Z,17.05
2023-04-27T13:12:52.051Z,17.10
2023-04-27T13:14:54.625Z,17.23
2023-04-27T13:16:57.649Z,17.53
2023-04-27T13:19:00.221Z,17.89
2023-04-27T13:21:04.058Z,18.06
2023-04-27T13:23:06.951Z,18.55
2023-04-27T13:25:10.613Z,18.58
2023-04-27T13:27:14.494Z,18.84
2023-04-27T13:29:17.878Z,19.22
2023-04-27T13:31:20.613Z,19.31
2023-04-27T13:33:23.954Z,19.54
2023-04-27T13:35:26.819Z,20.12
2023-04-27T13:37:29.391Z,20.75
2023-04-27T13:39:32.855Z,20.69
2023-04-27T13:41:36.045Z,21.04
2023-04-27T13:43:40.156Z,21.21
2023-04-27T13:45:43.095Z,21.61
2023-04-27T13:47:45.699Z,21.60
2023-04-27T13:49:48.244Z,21.72
2023-04-27T13:51:50.855Z,21.38
2023-04-27T13:53:53.411Z,21.20
2023-04-27T13:55:57.069Z,21.44
2023-04-27T13:57:59.766Z,21.45
2023-04-27T14:00:03.805Z,21.69
2023-04-27T14:02:06.370Z,21.66
2023-04-27T14:04:09.346Z,21.81
2023-04-27T14:06:11.985Z,21.78
2023-04-27T14:08:14.566Z,21.49
2023-04-27T14:10:17.614Z,21.48
2023-04-27T14:12:20.560Z,21.26
2023-04-27T14:14:23.183Z,21.27
2023-04-27T14:16:27.387Z,21.13
2023-04-27T14:18:32.443Z,20.75
2023-04-27T14:20:35.832Z,20.46
2023-04-27T14:22:38.420Z,20.44
2023-04-27T14:24:41.145Z,20.33
2023-04-27T14:26:47.674Z,20.15
2023-04-27T14:28:50.977Z,19.94
2023-04-27T14:30:53.633Z,19.75
2023-04-27T14:32:57.620Z,19.85
2023-04-27T14:35:03.544Z,19.70
2023-04-27T14:37:06.563Z,19.50
2023-04-27T14:39:09.677Z,19.44
2023-04-27T14:41:12.237Z,19.42
2023-04-27T14:43:14.784Z,19.43
2023-04-27T14:45:18.154Z,19.27
2023-04-27T14:47:20.876Z,19.17
2023-04-27T14:49:24.880Z,18.98
2023-04-27T14:51:28.759Z,18.85
2023-04-27T14:53:31.406Z,18.73
2023-04-27T14:55:33.951Z,18.66
2023-04-27T14:57:37.475Z,18.60
2023-04-27T14:59:40.093Z,18.57
2023-04-27T15:01:42.686Z,18.54
2023-04-27T15:03:48.312Z,18.54
2023-04-27T15:05:52.514Z,18.92
2023-04-27T15:07:55.102Z,18.85
2023-04-27T15:09:57.672Z,18.98
2023-04-27T15:12:00.239Z,18.90
2023-04-27T15:14:02.800Z,19.33
2023-04-27T15:16:07.202Z,19.39
2023-04-27T15:18:09.900Z,19.28
2023-04-27T15:20:14.022Z,19.62
2023-04-27T15:22:17.981Z,19.51
2023-04-27T15:24:20.580Z,19.54
2023-04-27T15:26:23.144Z,19.72
2023-04-27T15:28:26.312Z,19.99
2023-04-27T15:30:28.886Z,20.06
2023-04-27T15:32:31.560Z,20.18
2023-04-27T15:34:34.167Z,20.01
2023-04-27T15:36:36.714Z,19.93
2023-04-27T15:38:40.786Z,19.84
2023-04-27T15:40:43.358Z,19.77
2023-04-27T15:42:45.960Z,19.79
2023-04-27T15:44:48.812Z,19.69
2023-04-27T15:46:51.388Z,19.46
2023-04-27T15:48:53.964Z,19.41
2023-04-27T15:50:56.542Z,19.19
2023-04-27T15:52:59.105Z,19.04
2023-04-27T15:55:04.212Z,18.98
2023-04-27T15:57:06.800Z,19.00
2023-04-27T15:59:09.456Z,19.19
2023-04-27T16:01:12.061Z,19.05
2023-04-27T16:03:15.019Z,18.92
2023-04-27T16:05:18.023Z,18.73
2023-04-27T16:07:20.596Z,18.94
2023-04-27T16:09:23.987Z,18.79
2023-04-27T16:11:27.954Z,18.61
2023-04-27T16:13:30.528Z,18.47
2023-04-27T16:15:33.113Z,18.38
2023-04-27T16:17:36.798Z,18.58
2023-04-27T16:19:39.361Z,18.43
2023-04-27T16:21:41.940Z,18.28
2023-04-27T16:23:44.712Z,18.25
2023-04-27T16:25:47.415Z,18.17
2023-04-27T16:27:52.284Z,18.17
2023-04-27T16:29:54.834Z,18.20
2023-04-27T16:31:57.848Z,18.20
2023-04-27T16:34:00.542Z,18.35
2023-04-27T16:36:03.121Z,18.42
2023-04-27T16:38:06.018Z,18.66
2023-04-27T16:40:09.666Z,18.83
2023-04-27T16:42:13.367Z,18.70
2023-04-27T16:44:17.428Z,18.92
2023-04-27T16:46:20.007Z,18.82
2023-04-27T16:48:22.690Z,18.83
2023-04-27T16:50:25.486Z,18.86
2023-04-27T16:52:28.126Z,18.99
2023-04-27T16:54:30.705Z,18.82
2023-04-27T16:56:36.658Z,18.87
2023-04-27T16:58:39.201Z,18.86
2023-04-27T17:00:43.122Z,18.60
2023-04-27T17:02:45.820Z,18.45
2023-04-27T17:04:48.555Z,18.34
2023-04-27T17:06:51.183Z,18.24
2023-04-27T17:08:53.817Z,18.16
2023-04-27T17:10:56.423Z,18.11
2023-04-27T17:12:59.019Z,18.05
2023-04-27T17:15:01.578Z,17.99
2023-04-27T17:17:06.712Z,17.92
2023-04-27T17:19:09.312Z,17.89
2023-04-27T17:21:11.987Z,17.87
2023-04-27T17:23:14.520Z,17.84
2023-04-27T17:25:17.265Z,17.78
2023-04-27T17:27:19.978Z,17.78
2023-04-27T17:29:22.539Z,17.81
2023-04-27T17:31:25.171Z,17.76
2023-04-27T17:33:29.183Z,17.72
2023-04-27T17:35:31.784Z,17.75
2023-04-27T17:37:34.328Z,17.65
2023-04-27T17:39:37.705Z,17.59
2023-04-27T17:41:40.363Z,17.55
2023-04-27T17:43:42.944Z,17.52
2023-04-27T17:45:45.766Z,17.47
2023-04-27T17:47:48.312Z,17.41
2023-04-27T17:49:52.328Z,17.36
2023-04-27T17:51:55.404Z,17.31
2023-04-27T17:53:57.950Z,17.39
2023-04-27T17:56:00.546Z,17.35
2023-04-27T17:58:08.540Z,17.26
2023-04-27T18:00:12.692Z,17.10
2023-04-27T18:02:15.485Z,17.13
2023-04-27T18:04:18.241Z,17.03
2023-04-27T18:06:22.467Z,16.92
2023-04-27T18:08:25.044Z,16.89
2023-04-27T18:10:27.596Z,16.78
2023-04-27T18:12:30.160Z,16.71
2023-04-27T18:14:32.791Z,16.64
2023-04-27T18:16:35.485Z,16.62
2023-04-27T18:18:39.178Z,16.54
2023-04-27T18:20:44.757Z,16.38
2023-04-27T18:22:49.120Z,16.32
2023-04-27T18:24:51.711Z,16.30
2023-04-27T18:26:54.268Z,16.33
2023-04-27T18:28:58.550Z,16.24
2023-04-27T18:31:01.207Z,16.15
2023-04-27T18:33:05.322Z,15.98
2023-04-27T18:35:08.788Z,15.90
2023-04-27T18:37:11.716Z,15.86
2023-04-27T18:39:16.007Z,15.85
2023-04-27T18:41:18.750Z,15.78
2023-04-27T18:43:21.326Z,15.82
2023-04-27T18:45:23.963Z,15.73
2023-04-27T18:47:26.637Z,15.67
2023-04-27T18:49:29.249Z,15.74
2023-04-27T18:51:32.206Z,15.73
2023-04-27T18:53:34.976Z,15.56
2023-04-27T18:55:39.456Z,15.39
2023-04-27T18:57:42.049Z,15.24
2023-04-27T18:59:44.643Z,15.22
2023-04-27T19:01:47.345Z,15.19
2023-04-27T19:03:50.442Z,15.18
2023-04-27T19:05:53.363Z,15.23
2023-04-27T19:07:56.034Z,15.20
2023-04-27T19:09:58.610Z,15.18
2023-04-27T19:12:03.829Z,15.15
2023-04-27T19:14:06.487Z,15.14
2023-04-27T19:16:09.576Z,15.27
2023-04-27T19:18:12.210Z,15.30
2023-04-27T19:20:14.801Z,15.20
2023-04-27T19:22:17.353Z,15.01
2023-04-27T19:24:19.991Z,14.97
2023-04-27T19:26:22.736Z,14.84
2023-04-27T19:28:27.031Z,14.74
2023-04-27T19:30:29.640Z,14.60
2023-04-27T19:32:34.211Z,14.57
2023-04-27T19:34:36.873Z,14.77
2023-04-27T19:36:39.442Z,14.75
2023-04-27T19:38:42.037Z,14.49
2023-04-27T19:40:44.820Z,14.38
2023-04-27T19:42:47.358Z,14.36
2023-04-27T19:44:51.308Z,14.45
2023-04-27T19:46:53.865Z,14.48
2023-04-27T19:48:56.477Z,14.34
2023-04-27T19:50:59.062Z,14.40
2023-04-27T19:53:01.629Z,14.26
2023-04-27T19:55:04.519Z,14.23
2023-04-27T19:57:07.134Z,14.24
2023-04-27T19:59:09.685Z,14.22
2023-04-27T20:01:13.719Z,14.25
2023-04-27T20:03:17.299Z,14.45
2023-04-27T20:05:20.362Z,14.41
2023-04-27T20:07:23.581Z,14.24
2023-04-27T20:09:26.182Z,14.26
2023-04-27T20:11:28.756Z,14.21
2023-04-27T20:13:31.484Z,14.16
2023-04-27T20:15:34.154Z,14.16
2023-04-27T20:17:38.102Z,14.11
2023-04-27T20:19:42.560Z,14.12
2023-04-27T20:21:45.461Z,14.11
2023-04-27T20:23:48.829Z,14.12
2023-04-27T20:25:51.589Z,14.12
2023-04-27T20:27:54.164Z,14.12
2023-04-27T20:29:56.809Z,14.13
2023-04-27T20:31:59.446Z,14.12
2023-04-27T20:34:03.554Z,14.12
2023-04-27T20:36:16.095Z,14.11
2023-04-27T20:38:20.218Z,14.10
2023-04-27T20:40:22.822Z,14.12
2023-04-27T20:42:25.479Z,14.08
2023-04-27T20:44:28.035Z,14.03
2023-04-27T20:46:31.170Z,13.99
2023-04-27T20:48:33.821Z,13.97
2023-04-27T20:50:37.723Z,13.90
2023-04-27T20:52:40.316Z,13.83
2023-04-27T20:54:42.877Z,13.76
2023-04-27T20:56:46.798Z,13.74
2023-04-27T20:58:49.386Z,13.70
2023-04-27T21:00:52.324Z,13.71
2023-04-27T21:02:55.047Z,13.68
2023-04-27T21:04:57.866Z,13.72
2023-04-27T21:07:01.980Z,13.69
2023-04-27T21:09:05.491Z,13.66
2023-04-27T21:11:08.106Z,13.66
2023-04-27T21:13:10.930Z,13.65
2023-04-27T21:15:13.504Z,13.64
2023-04-27T21:17:16.165Z,13.64
2023-04-27T21:19:18.738Z,13.69
2023-04-27T21:21:22.016Z,13.62
2023-04-27T21:23:25.990Z,13.61
2023-04-27T21:25:28.588Z,13.56
2023-04-27T21:27:31.718Z,13.56
2023-04-27T21:29:35.473Z,13.55
2023-04-27T21:31:38.294Z,13.52
2023-04-27T21:33:41.053Z,13.50
2023-04-27T21:35:43.704Z,13.51
2023-04-27T21:37:46.248Z,13.51
2023-04-27T21:39:50.218Z,13.44
2023-04-27T21:41:52.799Z,13.45
2023-04-27T21:43:55.483Z,13.41
2023-04-27T21:45:58.059Z,13.41
2023-04-27T21:48:00.738Z,13.40
2023-04-27T21:50:03.381Z,13.37
2023-04-27T21:52:06.147Z,13.35
2023-04-27T21:54:11.280Z,13.34
2023-04-27T21:56:17.957Z,13.32
2023-04-27T21:58:20.943Z,13.32
2023-04-27T22:00:23.668Z,13.32
2023-04-27T22:02:26.435Z,13.33
2023-04-27T22:04:29.451Z,13.32
2023-04-27T22:06:33.410Z,13.30
2023-04-27T22:08:36.065Z,13.31
2023-04-27T22:10:38.689Z,13.30
2023-04-27T22:12:42.617Z,13.31
2023-04-27T22:14:46.846Z,13.34
2023-04-27T22:16:49.805Z,13.22
2023-04-27T22:18:53.815Z,13.12
2023-04-27T22:20:58.026Z,13.09
2023-04-27T22:23:00.845Z,13.09
2023-04-27T22:25:03.503Z,13.07
2023-04-27T22:27:06.370Z,13.06
2023-04-27T22:29:10.510Z,13.06
2023-04-27T22:31:13.098Z,13.07
2023-04-27T22:33:16.627Z,13.07
2023-04-27T22:35:26.357Z,13.09
2023-04-27T22:37:30.112Z,13.06
2023-04-27T22:39:32.745Z,13.01
2023-04-27T22:41:36.082Z,12.98
2023-04-27T22:43:38.636Z,12.99
2023-04-27T22:45:45.490Z,12.99
2023-04-27T22:47:49.249Z,12.95
2023-04-27T22:49:54.536Z,12.91
2023-04-27T22:51:57.680Z,12.90
2023-04-27T22:54:00.361Z,12.94
2023-04-27T22:56:02.945Z,12.94
2023-04-27T22:58:05.942Z,12.95
2023-04-27T23:00:11.467Z,12.83
2023-04-27T23:02:16.274Z,12.74
2023-04-27T23:04:19.861Z,12.66
2023-04-27T23:06:28.129Z,12.65
2023-04-27T23:08:30.709Z,12.66
2023-04-27T23:10:34.782Z,12.64
2023-04-27T23:12:37.736Z,12.65
2023-04-27T23:14:42.222Z,12.66
2023-04-27T23:16:46.183Z,12.68
2023-04-27T23:18:50.812Z,12.70
2023-04-27T23:20:54.438Z,12.71
2023-04-27T23:22:57.123Z,12.73
2023-04-27T23:24:59.750Z,12.75
2023-04-27T23:27:02.318Z,12.75
2023-04-27T23:29:05.046Z,12.77
2023-04-27T23:31:07.710Z,12.80
2023-04-27T23:33:10.340Z,12.82
2023-04-27T23:35:14.212Z,12.87
2023-04-27T23:37:17.233Z,12.94
2023-04-27T23:39:19.777Z,12.96
2023-04-27T23:41:23.327Z,12.97
2023-04-27T23:43:27.441Z,12.90
2023-04-27T23:45:30.002Z,12.89
2023-04-27T23:47:33.906Z,12.81
2023-04-27T23:49:36.898Z,12.79
2023-04-27T23:51:40.833Z,12.79
2023-04-27T23:53:43.550Z,12.82
2023-04-27T23:55:46.143Z,12.85
2023-04-27T23:57:48.708Z,12.85
2023-04-27T23:59:51.254Z,12.86
